sensor_id;sensor_type;location;lat;lon;timestamp;temperature;humidity
2056;DHT22;1033;52.560;13.374;2024-01-15T00:00:00;2.20;1.00
2056;DHT22;1033;52.560;13.374;2024-01-15T00:02:36;2.20;1.00
2056;DHT22;1033;52.560;13.374;2024-01-15T00:05:05;2.20;1.00
2056;DHT22;1033;52.560;13.374;2024-01-15T00:07:35;2.20;1.00
2056;DHT22;1033;52.560;13.374;2024-01-15T00:10:04;2.30;1.00
2056;DHT22;1033;52.560;13.374;2024-01-15T00:12:33;2.20;1.00
2056;DHT22;1033;52.560;13.374;2024-01-15T00:15:03;2.20;1.00
2056;DHT22;1033;52.560;13.374;2024-01-15T00:17:33;2.20;1.00
2056;DHT22;1033;52.560;13.374;2024-01-15T00:20:01;2.20;1.00
2056;DHT22;1033;52.560;13.374;2024-01-15T00:22:31;2.20;1.00
2056;DHT22;1033;52.560;13.374;2024-01-15T00:25:02;2.20;1.00
2056;DHT22;1033;52.560;13.374;2024-01-15T00:27:31;2.10;1.00
2056;DHT22;1033;52.560;13.374;2024-01-15T00:30:00;2.10;1.00
2056;DHT22;1033;52.560;13.374;2024-01-15T00:32:29;2.10;1.00
2056;DHT22;1033;52.560;13.374;2024-01-15T00:34:58;2.10;1.00
2056;DHT22;1033;52.560;13.374;2024-01-15T00:37:27;2.20;1.00
2056;DHT22;1033;52.560;13.374;2024-01-15T00:39:55;2.10;1.00
2056;DHT22;1033;52.560;13.374;2024-01-15T00:42:24;2.10;1.00
2056;DHT22;1033;52.560;13.374;2024-01-15T00:44:53;2.20;1.00
2056;DHT22;1033;52.560;13.374;2024-01-15T00:47:22;2.20;1.00
2056;DHT22;1033;52.560;13.374;2024-01-15T00:49:52;2.20;1.00
2056;DHT22;1033;52.560;13.374;2024-01-15T00:52:20;2.10;1.00
2056;DHT22;1033;52.560;13.374;2024-01-15T00:54:49;2.00;1.00
2056;DHT22;1033;52.560;13.374;2024-01-15T00:57:18;2.10;1.00
2056;DHT22;1033;52.560;13.374;2024-01-15T00:59:47;2.20;1.00
2056;DHT22;1033;52.560;13.374;2024-01-15T01:02:16;2.20;1.00
2056;DHT22;1033;52.560;13.374;2024-01-15T01:04:44;2.10;1.00
2056;DHT22;1033;52.560;13.374;2024-01-15T01:07:14;2.10;1.00
2056;DHT22;1033;52.560;13.374;2024-01-15T01:09:42;2.00;1.00
2056;DHT22;1033;52.560;13.374;2024-01-15T01:12:12;2.00;1.00
2056;DHT22;1033;52.560;13.374;2024-01-15T01:14:41;1.90;1.00
2056;DHT22;1033;52.560;13.374;2024-01-15T01:17:09;1.80;1.00
2056;DHT22;1033;52.560;13.374;2024-01-15T01:19:38;1.70;79.00
2056;DHT22;1033;52.560;13.374;2024-01-15T01:22:06;1.60;99.90
2056;DHT22;1033;52.560;13.374;2024-01-15T01:24:36;1.60;99.90
2056;DHT22;1033;52.560;13.374;2024-01-15T01:27:04;1.60;1.00
2056;DHT22;1033;52.560;13.374;2024-01-15T01:29:33;1.60;99.90
2056;DHT22;1033;52.560;13.374;2024-01-15T01:32:01;1.70;1.00
2056;DHT22;1033;52.560;13.374;2024-01-15T01:34:32;1.70;99.90
2056;DHT22;1033;52.560;13.374;2024-01-15T01:37:01;1.70;99.90
2056;DHT22;1033;52.560;13.374;2024-01-15T01:39:29;1.70;99.90
2056;DHT22;1033;52.560;13.374;2024-01-15T01:41:59;1.70;99.90
2056;DHT22;1033;52.560;13.374;2024-01-15T01:44:27;1.70;99.90
2056;DHT22;1033;52.560;13.374;2024-01-15T01:46:56;1.80;99.90
2056;DHT22;1033;52.560;13.374;2024-01-15T01:49:27;1.70;99.90
2056;DHT22;1033;52.560;13.374;2024-01-15T01:51:57;1.70;99.90
2056;DHT22;1033;52.560;13.374;2024-01-15T01:54:29;1.70;1.00
2056;DHT22;1033;52.560;13.374;2024-01-15T01:57:02;1.70;1.00
2056;DHT22;1033;52.560;13.374;2024-01-15T01:59:34;1.70;1.00
2056;DHT22;1033;52.560;13.374;2024-01-15T02:02:04;1.60;99.90
2056;DHT22;1033;52.560;13.374;2024-01-15T02:04:33;1.60;99.90
2056;DHT22;1033;52.560;13.374;2024-01-15T02:07:04;1.60;11.50
2056;DHT22;1033;52.560;13.374;2024-01-15T02:09:32;1.60;1.00
2056;DHT22;1033;52.560;13.374;2024-01-15T02:12:03;1.60;1.00
2056;DHT22;1033;52.560;13.374;2024-01-15T02:14:32;1.60;1.00
2056;DHT22;1033;52.560;13.374;2024-01-15T02:17:00;1.60;1.00
2056;DHT22;1033;52.560;13.374;2024-01-15T02:19:29;1.50;1.00
2056;DHT22;1033;52.560;13.374;2024-01-15T02:21:57;1.40;1.00
2056;DHT22;1033;52.560;13.374;2024-01-15T02:24:27;1.50;1.00
2056;DHT22;1033;52.560;13.374;2024-01-15T02:26:56;1.40;1.00
2056;DHT22;1033;52.560;13.374;2024-01-15T02:29:24;1.50;99.90
2056;DHT22;1033;52.560;13.374;2024-01-15T02:31:53;1.60;15.20
2056;DHT22;1033;52.560;13.374;2024-01-15T02:34:21;1.60;1.00
2056;DHT22;1033;52.560;13.374;2024-01-15T02:36:50;1.60;1.00
2056;DHT22;1033;52.560;13.374;2024-01-15T02:39:19;1.60;1.00
2056;DHT22;1033;52.560;13.374;2024-01-15T02:41:49;1.60;1.00
2056;DHT22;1033;52.560;13.374;2024-01-15T02:44:17;1.60;1.00
2056;DHT22;1033;52.560;13.374;2024-01-15T02:46:46;1.60;1.00
2056;DHT22;1033;52.560;13.374;2024-01-15T02:49:14;1.60;1.00
2056;DHT22;1033;52.560;13.374;2024-01-15T02:51:43;1.60;1.00
2056;DHT22;1033;52.560;13.374;2024-01-15T02:54:12;1.60;1.00
2056;DHT22;1033;52.560;13.374;2024-01-15T02:56:40;1.70;1.00
2056;DHT22;1033;52.560;13.374;2024-01-15T02:59:10;1.70;1.00
2056;DHT22;1033;52.560;13.374;2024-01-15T03:01:39;1.70;1.00
2056;DHT22;1033;52.560;13.374;2024-01-15T03:04:08;1.70;1.00
2056;DHT22;1033;52.560;13.374;2024-01-15T03:06:36;1.80;1.00
2056;DHT22;1033;52.560;13.374;2024-01-15T03:09:05;1.70;1.00
2056;DHT22;1033;52.560;13.374;2024-01-15T03:11:37;1.80;1.00
2056;DHT22;1033;52.560;13.374;2024-01-15T03:14:06;1.80;1.00
2056;DHT22;1033;52.560;13.374;2024-01-15T03:16:35;1.80;1.00
2056;DHT22;1033;52.560;13.374;2024-01-15T03:19:06;1.80;99.90
2056;DHT22;1033;52.560;13.374;2024-01-15T03:21:34;1.80;99.90
2056;DHT22;1033;52.560;13.374;2024-01-15T03:24:03;1.90;99.90
2056;DHT22;1033;52.560;13.374;2024-01-15T03:26:32;1.90;99.90
2056;DHT22;1033;52.560;13.374;2024-01-15T03:29:01;1.90;99.90
2056;DHT22;1033;52.560;13.374;2024-01-15T03:31:29;1.90;99.90
2056;DHT22;1033;52.560;13.374;2024-01-15T03:33:59;1.90;99.90
2056;DHT22;1033;52.560;13.374;2024-01-15T03:36:28;1.90;99.90
2056;DHT22;1033;52.560;13.374;2024-01-15T03:39:00;1.90;99.90
2056;DHT22;1033;52.560;13.374;2024-01-15T03:41:29;2.00;99.90
2056;DHT22;1033;52.560;13.374;2024-01-15T03:43:57;1.90;99.90
2056;DHT22;1033;52.560;13.374;2024-01-15T03:46:29;1.90;99.90
2056;DHT22;1033;52.560;13.374;2024-01-15T03:49:05;1.90;99.90
2056;DHT22;1033;52.560;13.374;2024-01-15T03:51:34;1.90;99.90
2056;DHT22;1033;52.560;13.374;2024-01-15T03:54:02;1.90;99.90
2056;DHT22;1033;52.560;13.374;2024-01-15T03:56:31;1.90;99.90
2056;DHT22;1033;52.560;13.374;2024-01-15T03:58:59;1.90;99.90
2056;DHT22;1033;52.560;13.374;2024-01-15T04:01:28;1.90;99.90
2056;DHT22;1033;52.560;13.374;2024-01-15T04:04:01;1.90;99.90
2056;DHT22;1033;52.560;13.374;2024-01-15T04:06:31;1.90;99.90
2056;DHT22;1033;52.560;13.374;2024-01-15T04:09:00;1.90;99.90
2056;DHT22;1033;52.560;13.374;2024-01-15T04:11:29;1.90;99.90
2056;DHT22;1033;52.560;13.374;2024-01-15T04:13:57;1.90;99.90
2056;DHT22;1033;52.560;13.374;2024-01-15T04:16:26;1.90;99.90
2056;DHT22;1033;52.560;13.374;2024-01-15T04:18:54;1.90;99.90
2056;DHT22;1033;52.560;13.374;2024-01-15T04:21:23;1.90;99.90
2056;DHT22;1033;52.560;13.374;2024-01-15T04:23:53;1.90;99.90
2056;DHT22;1033;52.560;13.374;2024-01-15T04:26:21;1.90;99.90
2056;DHT22;1033;52.560;13.374;2024-01-15T04:28:50;1.90;99.90
2056;DHT22;1033;52.560;13.374;2024-01-15T04:31:23;1.90;99.90
2056;DHT22;1033;52.560;13.374;2024-01-15T04:33:52;2.00;99.90
2056;DHT22;1033;52.560;13.374;2024-01-15T04:36:21;2.00;99.90
2056;DHT22;1033;52.560;13.374;2024-01-15T04:38:49;2.00;99.90
2056;DHT22;1033;52.560;13.374;2024-01-15T04:41:20;2.00;99.90
2056;DHT22;1033;52.560;13.374;2024-01-15T04:43:48;2.00;99.90
2056;DHT22;1033;52.560;13.374;2024-01-15T04:46:17;2.00;99.90
2056;DHT22;1033;52.560;13.374;2024-01-15T04:48:47;2.00;99.90
2056;DHT22;1033;52.560;13.374;2024-01-15T04:51:15;2.10;99.90
2056;DHT22;1033;52.560;13.374;2024-01-15T04:53:44;2.00;99.90
2056;DHT22;1033;52.560;13.374;2024-01-15T04:56:13;2.00;99.90
2056;DHT22;1033;52.560;13.374;2024-01-15T04:58:43;2.10;99.90
2056;DHT22;1033;52.560;13.374;2024-01-15T05:01:11;2.10;99.90
2056;DHT22;1033;52.560;13.374;2024-01-15T05:03:40;2.10;99.90
2056;DHT22;1033;52.560;13.374;2024-01-15T05:06:08;2.10;99.90
2056;DHT22;1033;52.560;13.374;2024-01-15T05:08:37;2.10;99.90
2056;DHT22;1033;52.560;13.374;2024-01-15T05:11:06;2.10;99.90
2056;DHT22;1033;52.560;13.374;2024-01-15T05:13:34;2.10;99.90
2056;DHT22;1033;52.560;13.374;2024-01-15T05:16:05;2.10;99.90
2056;DHT22;1033;52.560;13.374;2024-01-15T05:18:33;2.10;99.90
2056;DHT22;1033;52.560;13.374;2024-01-15T05:21:04;2.20;99.90
2056;DHT22;1033;52.560;13.374;2024-01-15T05:23:33;2.10;99.90
2056;DHT22;1033;52.560;13.374;2024-01-15T05:26:03;2.20;99.90
2056;DHT22;1033;52.560;13.374;2024-01-15T05:28:32;2.20;99.90
2056;DHT22;1033;52.560;13.374;2024-01-15T05:31:00;2.10;99.90
2056;DHT22;1033;52.560;13.374;2024-01-15T05:33:31;2.10;99.90
2056;DHT22;1033;52.560;13.374;2024-01-15T05:36:00;2.10;99.90
2056;DHT22;1033;52.560;13.374;2024-01-15T05:38:29;2.00;99.90
2056;DHT22;1033;52.560;13.374;2024-01-15T05:40:57;2.10;99.90
2056;DHT22;1033;52.560;13.374;2024-01-15T05:43:26;2.10;99.90
2056;DHT22;1033;52.560;13.374;2024-01-15T05:45:55;2.10;99.90
2056;DHT22;1033;52.560;13.374;2024-01-15T05:48:23;2.20;99.90
2056;DHT22;1033;52.560;13.374;2024-01-15T05:50:53;2.10;99.90
2056;DHT22;1033;52.560;13.374;2024-01-15T05:53:22;2.20;99.90
2056;DHT22;1033;52.560;13.374;2024-01-15T05:55:51;2.20;99.90
2056;DHT22;1033;52.560;13.374;2024-01-15T05:58:20;2.30;99.90
2056;DHT22;1033;52.560;13.374;2024-01-15T06:00:48;2.20;99.90
2056;DHT22;1033;52.560;13.374;2024-01-15T06:06:35;2.20;99.90
2056;DHT22;1033;52.560;13.374;2024-01-15T06:09:03;2.10;99.90
2056;DHT22;1033;52.560;13.374;2024-01-15T06:11:33;2.10;99.90
2056;DHT22;1033;52.560;13.374;2024-01-15T06:14:02;2.10;99.90
2056;DHT22;1033;52.560;13.374;2024-01-15T06:16:30;2.20;99.90
2056;DHT22;1033;52.560;13.374;2024-01-15T06:18:59;2.20;99.90
2056;DHT22;1033;52.560;13.374;2024-01-15T06:21:27;2.20;99.90
2056;DHT22;1033;52.560;13.374;2024-01-15T06:23:57;2.20;99.90
2056;DHT22;1033;52.560;13.374;2024-01-15T06:26:33;2.30;99.90
2056;DHT22;1033;52.560;13.374;2024-01-15T06:29:02;2.30;99.90
2056;DHT22;1033;52.560;13.374;2024-01-15T06:31:30;2.40;99.90
2056;DHT22;1033;52.560;13.374;2024-01-15T06:33:59;2.40;99.90
2056;DHT22;1033;52.560;13.374;2024-01-15T06:36:27;2.40;99.90
2056;DHT22;1033;52.560;13.374;2024-01-15T06:38:57;2.40;99.90
2056;DHT22;1033;52.560;13.374;2024-01-15T06:41:26;2.40;99.90
2056;DHT22;1033;52.560;13.374;2024-01-15T06:43:55;2.40;99.90
2056;DHT22;1033;52.560;13.374;2024-01-15T06:46:23;2.40;99.90
2056;DHT22;1033;52.560;13.374;2024-01-15T06:48:52;2.40;99.90
2056;DHT22;1033;52.560;13.374;2024-01-15T06:51:21;2.40;99.90
2056;DHT22;1033;52.560;13.374;2024-01-15T06:53:52;2.30;99.90
2056;DHT22;1033;52.560;13.374;2024-01-15T06:56:22;2.30;99.90
2056;DHT22;1033;52.560;13.374;2024-01-15T06:58:51;2.30;99.90
2056;DHT22;1033;52.560;13.374;2024-01-15T07:01:19;2.40;99.90
2056;DHT22;1033;52.560;13.374;2024-01-15T07:03:48;2.30;99.90
2056;DHT22;1033;52.560;13.374;2024-01-15T07:06:16;2.30;99.90
2056;DHT22;1033;52.560;13.374;2024-01-15T07:08:46;2.40;99.90
2056;DHT22;1033;52.560;13.374;2024-01-15T07:11:14;2.40;99.90
2056;DHT22;1033;52.560;13.374;2024-01-15T07:13:45;2.40;99.90
2056;DHT22;1033;52.560;13.374;2024-01-15T07:16:13;2.40;99.90
2056;DHT22;1033;52.560;13.374;2024-01-15T07:18:56;2.40;99.90
2056;DHT22;1033;52.560;13.374;2024-01-15T07:21:24;2.40;99.90
2056;DHT22;1033;52.560;13.374;2024-01-15T07:23:53;2.40;99.90
2056;DHT22;1033;52.560;13.374;2024-01-15T07:26:21;2.40;99.90
2056;DHT22;1033;52.560;13.374;2024-01-15T07:28:51;2.40;99.90
2056;DHT22;1033;52.560;13.374;2024-01-15T07:31:20;2.40;99.90
2056;DHT22;1033;52.560;13.374;2024-01-15T07:33:48;2.50;99.90
2056;DHT22;1033;52.560;13.374;2024-01-15T07:36:21;2.50;99.90
2056;DHT22;1033;52.560;13.374;2024-01-15T07:38:50;2.50;99.90
2056;DHT22;1033;52.560;13.374;2024-01-15T07:41:18;2.50;99.90
2056;DHT22;1033;52.560;13.374;2024-01-15T07:43:47;2.50;99.90
2056;DHT22;1033;52.560;13.374;2024-01-15T07:46:17;2.50;99.90
2056;DHT22;1033;52.560;13.374;2024-01-15T07:48:45;2.60;99.90
2056;DHT22;1033;52.560;13.374;2024-01-15T07:51:14;2.60;99.90
2056;DHT22;1033;52.560;13.374;2024-01-15T07:53:42;2.60;99.90
2056;DHT22;1033;52.560;13.374;2024-01-15T07:56:11;2.60;99.90
2056;DHT22;1033;52.560;13.374;2024-01-15T07:58:40;2.60;99.90
2056;DHT22;1033;52.560;13.374;2024-01-15T08:01:09;2.50;99.90
2056;DHT22;1033;52.560;13.374;2024-01-15T08:03:40;2.50;99.90
2056;DHT22;1033;52.560;13.374;2024-01-15T08:06:08;2.50;99.90
2056;DHT22;1033;52.560;13.374;2024-01-15T08:08:37;2.50;99.90
2056;DHT22;1033;52.560;13.374;2024-01-15T08:11:06;2.50;99.90
2056;DHT22;1033;52.560;13.374;2024-01-15T08:13:34;2.60;99.90
2056;DHT22;1033;52.560;13.374;2024-01-15T08:16:04;2.60;99.90
2056;DHT22;1033;52.560;13.374;2024-01-15T08:18:33;2.60;99.90
2056;DHT22;1033;52.560;13.374;2024-01-15T08:21:03;2.60;99.90
2056;DHT22;1033;52.560;13.374;2024-01-15T08:23:34;2.60;99.90
2056;DHT22;1033;52.560;13.374;2024-01-15T08:26:03;2.70;99.90
2056;DHT22;1033;52.560;13.374;2024-01-15T08:28:32;2.70;99.90
2056;DHT22;1033;52.560;13.374;2024-01-15T08:31:03;2.70;99.90
2056;DHT22;1033;52.560;13.374;2024-01-15T08:33:32;2.70;99.90
2056;DHT22;1033;52.560;13.374;2024-01-15T08:36:00;2.70;99.90
2056;DHT22;1033;52.560;13.374;2024-01-15T08:38:30;2.70;99.90
2056;DHT22;1033;52.560;13.374;2024-01-15T08:40:59;2.70;99.90
2056;DHT22;1033;52.560;13.374;2024-01-15T08:43:27;2.70;99.90
2056;DHT22;1033;52.560;13.374;2024-01-15T08:45:58;2.70;99.90
2056;DHT22;1033;52.560;13.374;2024-01-15T08:48:27;2.80;99.90
2056;DHT22;1033;52.560;13.374;2024-01-15T08:50:56;2.70;99.90
2056;DHT22;1033;52.560;13.374;2024-01-15T08:53:24;2.70;99.90
2056;DHT22;1033;52.560;13.374;2024-01-15T08:55:55;2.70;99.90
2056;DHT22;1033;52.560;13.374;2024-01-15T08:58:24;2.70;99.90
2056;DHT22;1033;52.560;13.374;2024-01-15T09:00:55;2.60;99.90
2056;DHT22;1033;52.560;13.374;2024-01-15T09:03:24;2.60;99.90
2056;DHT22;1033;52.560;13.374;2024-01-15T09:05:52;2.70;99.90
2056;DHT22;1033;52.560;13.374;2024-01-15T09:08:21;2.70;99.90
2056;DHT22;1033;52.560;13.374;2024-01-15T09:10:50;2.70;99.90
2056;DHT22;1033;52.560;13.374;2024-01-15T09:13:20;2.70;99.90
2056;DHT22;1033;52.560;13.374;2024-01-15T09:15:48;2.70;99.90
2056;DHT22;1033;52.560;13.374;2024-01-15T09:18:17;2.70;99.90
2056;DHT22;1033;52.560;13.374;2024-01-15T09:20:45;2.70;99.90
2056;DHT22;1033;52.560;13.374;2024-01-15T09:23:14;2.70;99.90
2056;DHT22;1033;52.560;13.374;2024-01-15T09:25:42;2.70;99.90
2056;DHT22;1033;52.560;13.374;2024-01-15T09:28:11;2.80;99.90
2056;DHT22;1033;52.560;13.374;2024-01-15T09:30:41;2.80;99.90
2056;DHT22;1033;52.560;13.374;2024-01-15T09:33:09;2.90;99.90
2056;DHT22;1033;52.560;13.374;2024-01-15T09:35:38;2.90;99.90
2056;DHT22;1033;52.560;13.374;2024-01-15T09:38:06;2.90;99.90
2056;DHT22;1033;52.560;13.374;2024-01-15T09:40:38;3.00;99.90
2056;DHT22;1033;52.560;13.374;2024-01-15T09:43:17;3.10;99.90
2056;DHT22;1033;52.560;13.374;2024-01-15T09:45:49;3.20;99.90
2056;DHT22;1033;52.560;13.374;2024-01-15T09:48:19;3.30;99.90
2056;DHT22;1033;52.560;13.374;2024-01-15T09:50:48;3.30;99.90
2056;DHT22;1033;52.560;13.374;2024-01-15T09:53:18;3.40;99.90
2056;DHT22;1033;52.560;13.374;2024-01-15T09:55:50;3.50;99.90
2056;DHT22;1033;52.560;13.374;2024-01-15T09:58:18;3.50;99.90
2056;DHT22;1033;52.560;13.374;2024-01-15T10:00:48;3.50;99.90
2056;DHT22;1033;52.560;13.374;2024-01-15T10:03:18;3.50;99.90
2056;DHT22;1033;52.560;13.374;2024-01-15T10:05:49;3.40;99.90
2056;DHT22;1033;52.560;13.374;2024-01-15T10:08:18;3.50;99.90
2056;DHT22;1033;52.560;13.374;2024-01-15T10:10:48;3.50;99.90
2056;DHT22;1033;52.560;13.374;2024-01-15T10:13:17;3.50;99.90
2056;DHT22;1033;52.560;13.374;2024-01-15T10:15:48;3.50;99.90
2056;DHT22;1033;52.560;13.374;2024-01-15T10:18:16;3.50;99.90
2056;DHT22;1033;52.560;13.374;2024-01-15T10:20:45;3.50;99.90
2056;DHT22;1033;52.560;13.374;2024-01-15T10:23:15;3.50;99.90
2056;DHT22;1033;52.560;13.374;2024-01-15T10:25:43;3.50;99.90
2056;DHT22;1033;52.560;13.374;2024-01-15T10:28:13;3.60;99.90
2056;DHT22;1033;52.560;13.374;2024-01-15T10:30:42;3.70;99.90
2056;DHT22;1033;52.560;13.374;2024-01-15T10:35:43;3.60;99.90
2056;DHT22;1033;52.560;13.374;2024-01-15T10:38:11;3.50;99.90
2056;DHT22;1033;52.560;13.374;2024-01-15T10:40:40;3.40;99.90
2056;DHT22;1033;52.560;13.374;2024-01-15T10:43:09;3.30;99.90
2056;DHT22;1033;52.560;13.374;2024-01-15T10:45:38;3.30;99.90
2056;DHT22;1033;52.560;13.374;2024-01-15T10:48:07;3.30;99.90
2056;DHT22;1033;52.560;13.374;2024-01-15T10:50:37;3.20;99.90
2056;DHT22;1033;52.560;13.374;2024-01-15T10:53:08;3.30;99.90
2056;DHT22;1033;52.560;13.374;2024-01-15T10:55:38;3.30;99.90
2056;DHT22;1033;52.560;13.374;2024-01-15T10:58:08;3.30;99.90
2056;DHT22;1033;52.560;13.374;2024-01-15T11:00:37;3.30;99.90
2056;DHT22;1033;52.560;13.374;2024-01-15T11:03:07;3.30;99.90
2056;DHT22;1033;52.560;13.374;2024-01-15T11:05:38;3.40;99.90
2056;DHT22;1033;52.560;13.374;2024-01-15T11:08:07;3.30;99.90
2056;DHT22;1033;52.560;13.374;2024-01-15T11:10:41;3.40;99.90
2056;DHT22;1033;52.560;13.374;2024-01-15T11:13:15;3.50;99.90
2056;DHT22;1033;52.560;13.374;2024-01-15T11:16:01;3.40;99.90
2056;DHT22;1033;52.560;13.374;2024-01-15T11:18:31;3.20;99.90
2056;DHT22;1033;52.560;13.374;2024-01-15T11:21:22;3.20;99.90
2056;DHT22;1033;52.560;13.374;2024-01-15T11:23:55;3.30;99.90
2056;DHT22;1033;52.560;13.374;2024-01-15T11:26:30;3.50;99.90
2056;DHT22;1033;52.560;13.374;2024-01-15T11:29:01;3.50;99.90
2056;DHT22;1033;52.560;13.374;2024-01-15T11:31:59;3.60;99.90
2056;DHT22;1033;52.560;13.374;2024-01-15T11:34:54;3.70;99.90
2056;DHT22;1033;52.560;13.374;2024-01-15T11:37:29;3.70;99.90
2056;DHT22;1033;52.560;13.374;2024-01-15T11:40:39;3.70;99.90
2056;DHT22;1033;52.560;13.374;2024-01-15T11:43:11;3.50;99.90
2056;DHT22;1033;52.560;13.374;2024-01-15T11:45:44;3.40;99.90
2056;DHT22;1033;52.560;13.374;2024-01-15T11:48:14;3.20;99.90
2056;DHT22;1033;52.560;13.374;2024-01-15T11:50:46;3.10;99.90
2056;DHT22;1033;52.560;13.374;2024-01-15T11:53:25;3.00;99.90
2056;DHT22;1033;52.560;13.374;2024-01-15T11:56:03;2.80;99.90
2056;DHT22;1033;52.560;13.374;2024-01-15T11:58:40;2.50;99.90
2056;DHT22;1033;52.560;13.374;2024-01-15T12:01:09;2.30;99.90
2056;DHT22;1033;52.560;13.374;2024-01-15T12:03:39;2.20;99.90
2056;DHT22;1033;52.560;13.374;2024-01-15T12:06:09;2.20;1.00
2056;DHT22;1033;52.560;13.374;2024-01-15T12:08:40;2.20;1.00
2056;DHT22;1033;52.560;13.374;2024-01-15T12:11:13;2.30;1.00
2056;DHT22;1033;52.560;13.374;2024-01-15T12:13:45;2.30;1.00
2056;DHT22;1033;52.560;13.374;2024-01-15T12:16:14;2.40;99.90
2056;DHT22;1033;52.560;13.374;2024-01-15T12:18:43;2.40;99.90
2056;DHT22;1033;52.560;13.374;2024-01-15T12:21:11;2.50;99.90
2056;DHT22;1033;52.560;13.374;2024-01-15T12:23:41;2.40;99.90
2056;DHT22;1033;52.560;13.374;2024-01-15T12:26:10;2.40;99.90
2056;DHT22;1033;52.560;13.374;2024-01-15T12:28:39;2.50;99.90
2056;DHT22;1033;52.560;13.374;2024-01-15T12:31:08;2.50;99.90
2056;DHT22;1033;52.560;13.374;2024-01-15T12:33:37;2.40;99.90
2056;DHT22;1033;52.560;13.374;2024-01-15T12:36:07;2.30;99.90
2056;DHT22;1033;52.560;13.374;2024-01-15T12:38:36;2.30;99.90
2056;DHT22;1033;52.560;13.374;2024-01-15T12:41:06;2.30;99.90
2056;DHT22;1033;52.560;13.374;2024-01-15T12:43:35;2.20;99.90
2056;DHT22;1033;52.560;13.374;2024-01-15T12:48:34;1.90;99.90
2056;DHT22;1033;52.560;13.374;2024-01-15T12:51:06;1.90;99.90
2056;DHT22;1033;52.560;13.374;2024-01-15T12:53:34;1.90;99.90
2056;DHT22;1033;52.560;13.374;2024-01-15T12:56:03;1.90;99.90
2056;DHT22;1033;52.560;13.374;2024-01-15T12:58:33;2.00;1.00
2056;DHT22;1033;52.560;13.374;2024-01-15T13:01:02;2.00;1.00
2056;DHT22;1033;52.560;13.374;2024-01-15T13:03:30;2.10;1.00
2056;DHT22;1033;52.560;13.374;2024-01-15T13:05:59;2.20;1.00
2056;DHT22;1033;52.560;13.374;2024-01-15T13:08:28;2.30;1.00
2056;DHT22;1033;52.560;13.374;2024-01-15T13:10:56;2.30;1.00
2056;DHT22;1033;52.560;13.374;2024-01-15T13:13:25;2.40;1.00
2056;DHT22;1033;52.560;13.374;2024-01-15T13:15:55;2.40;1.00
2056;DHT22;1033;52.560;13.374;2024-01-15T13:18:24;2.40;1.00
2056;DHT22;1033;52.560;13.374;2024-01-15T13:20:52;2.30;1.00
2056;DHT22;1033;52.560;13.374;2024-01-15T13:23:21;2.30;1.00
2056;DHT22;1033;52.560;13.374;2024-01-15T13:25:50;2.30;99.90
2056;DHT22;1033;52.560;13.374;2024-01-15T13:28:18;2.30;99.90
2056;DHT22;1033;52.560;13.374;2024-01-15T13:30:49;2.30;99.90
2056;DHT22;1033;52.560;13.374;2024-01-15T13:33:19;2.30;99.90
2056;DHT22;1033;52.560;13.374;2024-01-15T13:35:48;2.30;99.90
2056;DHT22;1033;52.560;13.374;2024-01-15T13:38:17;2.30;99.90
2056;DHT22;1033;52.560;13.374;2024-01-15T13:40:46;2.30;99.90
2056;DHT22;1033;52.560;13.374;2024-01-15T13:43:21;2.30;99.90
2056;DHT22;1033;52.560;13.374;2024-01-15T13:45:50;2.30;99.90
2056;DHT22;1033;52.560;13.374;2024-01-15T13:48:20;2.30;1.00
2056;DHT22;1033;52.560;13.374;2024-01-15T13:50:49;2.20;1.00
2056;DHT22;1033;52.560;13.374;2024-01-15T13:53:18;2.30;1.00
2056;DHT22;1033;52.560;13.374;2024-01-15T13:55:47;2.30;99.90
2056;DHT22;1033;52.560;13.374;2024-01-15T13:58:15;2.40;99.90
2056;DHT22;1033;52.560;13.374;2024-01-15T14:00:45;2.40;99.90
2056;DHT22;1033;52.560;13.374;2024-01-15T14:03:14;2.40;99.90
2056;DHT22;1033;52.560;13.374;2024-01-15T14:05:44;2.30;99.90
2056;DHT22;1033;52.560;13.374;2024-01-15T14:08:13;2.40;99.90
2056;DHT22;1033;52.560;13.374;2024-01-15T14:10:43;2.40;99.90
2056;DHT22;1033;52.560;13.374;2024-01-15T14:13:11;2.40;99.90
2056;DHT22;1033;52.560;13.374;2024-01-15T14:15:40;2.40;99.90
2056;DHT22;1033;52.560;13.374;2024-01-15T14:18:08;2.50;99.90
2056;DHT22;1033;52.560;13.374;2024-01-15T14:20:37;2.40;99.90
2056;DHT22;1033;52.560;13.374;2024-01-15T14:23:07;2.40;99.90
2056;DHT22;1033;52.560;13.374;2024-01-15T14:25:36;2.50;99.90
2056;DHT22;1033;52.560;13.374;2024-01-15T14:28:04;2.50;99.90
2056;DHT22;1033;52.560;13.374;2024-01-15T14:30:33;2.50;99.90
2056;DHT22;1033;52.560;13.374;2024-01-15T14:33:02;2.40;99.90
2056;DHT22;1033;52.560;13.374;2024-01-15T14:35:30;2.40;99.90
2056;DHT22;1033;52.560;13.374;2024-01-15T14:37:59;2.40;99.90
2056;DHT22;1033;52.560;13.374;2024-01-15T14:40:28;2.40;99.90
2056;DHT22;1033;52.560;13.374;2024-01-15T14:42:58;2.40;99.90
2056;DHT22;1033;52.560;13.374;2024-01-15T14:45:26;2.30;99.90
2056;DHT22;1033;52.560;13.374;2024-01-15T14:47:55;2.40;99.90
2056;DHT22;1033;52.560;13.374;2024-01-15T14:50:25;2.40;99.90
2056;DHT22;1033;52.560;13.374;2024-01-15T14:52:53;2.40;99.90
2056;DHT22;1033;52.560;13.374;2024-01-15T14:55:22;2.30;99.90
2056;DHT22;1033;52.560;13.374;2024-01-15T14:57:53;2.30;99.90
2056;DHT22;1033;52.560;13.374;2024-01-15T15:00:22;2.20;99.90
2056;DHT22;1033;52.560;13.374;2024-01-15T15:02:51;2.20;99.90
2056;DHT22;1033;52.560;13.374;2024-01-15T15:05:20;2.20;99.90
2056;DHT22;1033;52.560;13.374;2024-01-15T15:07:48;2.20;99.90
2056;DHT22;1033;52.560;13.374;2024-01-15T15:10:16;2.10;99.90
2056;DHT22;1033;52.560;13.374;2024-01-15T15:12:45;2.10;99.90
2056;DHT22;1033;52.560;13.374;2024-01-15T15:15:15;2.00;99.90
2056;DHT22;1033;52.560;13.374;2024-01-15T15:17:48;2.00;99.90
2056;DHT22;1033;52.560;13.374;2024-01-15T15:20:17;1.90;99.90
2056;DHT22;1033;52.560;13.374;2024-01-15T15:22:47;1.90;99.90
2056;DHT22;1033;52.560;13.374;2024-01-15T15:25:15;1.80;99.90
2056;DHT22;1033;52.560;13.374;2024-01-15T15:27:43;1.80;99.90
2056;DHT22;1033;52.560;13.374;2024-01-15T15:30:12;1.80;99.90
2056;DHT22;1033;52.560;13.374;2024-01-15T15:32:43;1.80;99.90
2056;DHT22;1033;52.560;13.374;2024-01-15T15:35:11;1.80;99.90
2056;DHT22;1033;52.560;13.374;2024-01-15T15:37:40;1.80;99.90
2056;DHT22;1033;52.560;13.374;2024-01-15T15:40:09;1.70;99.90
2056;DHT22;1033;52.560;13.374;2024-01-15T15:42:40;1.60;99.90
2056;DHT22;1033;52.560;13.374;2024-01-15T15:45:09;1.60;99.90
2056;DHT22;1033;52.560;13.374;2024-01-15T15:47:38;1.60;99.90
2056;DHT22;1033;52.560;13.374;2024-01-15T15:50:08;1.60;99.90
2056;DHT22;1033;52.560;13.374;2024-01-15T15:52:37;1.60;99.90
2056;DHT22;1033;52.560;13.374;2024-01-15T15:55:06;1.60;99.90
2056;DHT22;1033;52.560;13.374;2024-01-15T15:57:36;1.60;99.90
2056;DHT22;1033;52.560;13.374;2024-01-15T16:00:06;1.60;99.90
2056;DHT22;1033;52.560;13.374;2024-01-15T16:02:39;1.50;99.90
2056;DHT22;1033;52.560;13.374;2024-01-15T16:05:09;1.50;1.00
2056;DHT22;1033;52.560;13.374;2024-01-15T16:07:38;1.40;1.00
2056;DHT22;1033;52.560;13.374;2024-01-15T16:10:07;1.50;1.00
2056;DHT22;1033;52.560;13.374;2024-01-15T16:12:37;1.40;1.00
2056;DHT22;1033;52.560;13.374;2024-01-15T16:15:17;1.40;1.00
2056;DHT22;1033;52.560;13.374;2024-01-15T16:17:47;1.40;1.00
2056;DHT22;1033;52.560;13.374;2024-01-15T16:20:38;1.40;1.00
2056;DHT22;1033;52.560;13.374;2024-01-15T16:23:26;1.30;1.00
2056;DHT22;1033;52.560;13.374;2024-01-15T16:26:15;1.30;1.00
2056;DHT22;1033;52.560;13.374;2024-01-15T16:28:44;1.30;1.00